createdAt,value
2022-10-13T00:00:46.157Z,62
2022-10-13T00:04:05.679Z,63
2022-10-13T00:05:45.480Z,63
2022-10-13T00:07:25.216Z,62
2022-10-13T00:09:04.969Z,64
2022-10-13T00:10:44.747Z,63
2022-10-13T00:12:24.503Z,63
2022-10-13T00:14:04.273Z,63
2022-10-13T00:15:44.042Z,63
2022-10-13T00:17:23.809Z,63
2022-10-13T00:19:03.560Z,63
2022-10-13T00:20:43.346Z,63
2022-10-13T00:22:23.082Z,62
2022-10-13T00:24:02.857Z,63
2022-10-13T00:25:42.622Z,62
2022-10-13T00:27:22.385Z,62
2022-10-13T00:29:02.159Z,63
2022-10-13T00:30:41.908Z,62
2022-10-13T00:32:21.667Z,62
2022-10-13T00:34:01.434Z,63
2022-10-13T00:35:41.236Z,63
2022-10-13T00:37:20.961Z,62
2022-10-13T00:39:00.731Z,62
2022-10-13T00:40:40.489Z,63
2022-10-13T00:44:00.030Z,63
2022-10-13T00:45:39.781Z,62
2022-10-13T00:48:59.311Z,63
2022-10-13T00:50:39.083Z,63
2022-10-13T00:52:18.833Z,62
2022-10-13T00:53:58.591Z,62
2022-10-13T00:55:38.363Z,62
2022-10-13T00:57:18.125Z,62
2022-10-13T00:58:57.906Z,62
2022-10-13T01:00:37.654Z,62
2022-10-13T01:02:17.417Z,62
2022-10-13T01:03:57.190Z,62
2022-10-13T01:05:36.942Z,62
2022-10-13T01:07:16.708Z,62
2022-10-13T01:08:56.487Z,62
2022-10-13T01:10:36.231Z,62
2022-10-13T01:12:15.996Z,62
2022-10-13T01:13:55.767Z,62
2022-10-13T01:15:35.529Z,62
2022-10-13T01:17:15.324Z,62
2022-10-13T01:18:55.063Z,62
2022-10-13T01:20:34.818Z,62
2022-10-13T01:22:14.607Z,62
2022-10-13T01:23:54.349Z,62
2022-10-13T01:25:34.113Z,62
2022-10-13T01:27:13.872Z,62
2022-10-13T01:28:53.632Z,62
2022-10-13T01:30:33.402Z,61
2022-10-13T01:32:13.173Z,62
2022-10-13T01:33:52.941Z,62
2022-10-13T01:35:32.721Z,62
2022-10-13T01:37:12.477Z,61
2022-10-13T01:38:52.216Z,62
2022-10-13T01:40:31.990Z,61
2022-10-13T01:42:11.754Z,61
2022-10-13T01:43:51.521Z,61
2022-10-13T01:45:31.297Z,61
2022-10-13T01:47:11.041Z,61
2022-10-13T01:48:50.802Z,61
2022-10-13T01:50:30.573Z,61
2022-10-13T01:52:10.375Z,61
2022-10-13T01:53:50.111Z,61
2022-10-13T01:55:29.869Z,62
2022-10-13T01:57:09.621Z,61
2022-10-13T01:58:49.393Z,62
2022-10-13T02:00:29.158Z,61
2022-10-13T02:02:08.923Z,61
2022-10-13T02:03:48.707Z,61
2022-10-13T02:05:28.453Z,61
2022-10-13T02:07:08.219Z,61
2022-10-13T02:08:47.972Z,61
2022-10-13T02:10:27.756Z,61
2022-10-13T02:13:47.274Z,61
2022-10-13T02:17:06.802Z,61
2022-10-13T02:18:46.565Z,61
2022-10-13T02:20:26.310Z,61
2022-10-13T02:22:06.079Z,61
2022-10-13T02:23:45.845Z,61
2022-10-13T02:25:25.619Z,62
2022-10-13T02:27:05.368Z,61
2022-10-13T02:28:45.141Z,61
2022-10-13T02:30:24.904Z,61
2022-10-13T02:32:04.724Z,61
2022-10-13T02:33:44.444Z,60
2022-10-13T02:37:03.962Z,61
2022-10-13T02:38:43.725Z,61
2022-10-13T02:40:23.482Z,60
2022-10-13T02:42:03.291Z,61
2022-10-13T02:43:43.014Z,61
2022-10-13T02:45:22.778Z,61
2022-10-13T02:47:02.546Z,60
2022-10-13T02:48:42.311Z,60
2022-10-13T02:50:22.070Z,61
2022-10-13T02:52:01.829Z,60
2022-10-13T02:53:41.607Z,60
2022-10-13T02:55:21.409Z,61
2022-10-13T02:57:01.162Z,60
2022-10-13T02:58:40.889Z,61
2022-10-13T03:00:20.662Z,61
2022-10-13T03:03:40.173Z,60
2022-10-13T03:05:19.936Z,61
2022-10-13T03:06:59.703Z,60
2022-10-13T03:08:39.471Z,60
2022-10-13T03:10:19.249Z,60
2022-10-13T03:11:59.005Z,60
2022-10-13T03:13:38.773Z,60
2022-10-13T03:15:18.528Z,60
2022-10-13T03:16:58.299Z,60
2022-10-13T03:18:38.058Z,60
2022-10-13T03:20:17.864Z,59
2022-10-13T03:21:57.591Z,60
2022-10-13T03:23:37.343Z,60
2022-10-13T03:25:17.118Z,60
2022-10-13T03:26:56.870Z,60
2022-10-13T03:28:36.629Z,60
2022-10-13T03:30:16.411Z,59
2022-10-13T03:31:56.154Z,60
2022-10-13T03:33:35.919Z,59
2022-10-13T03:35:15.736Z,60
2022-10-13T03:36:55.446Z,60
2022-10-13T03:40:14.992Z,59
2022-10-13T03:41:54.746Z,60
2022-10-13T03:43:34.514Z,59
2022-10-13T03:45:14.284Z,60
2022-10-13T03:46:54.041Z,59
2022-10-13T03:48:33.795Z,59
2022-10-13T03:50:13.571Z,59
2022-10-13T03:53:33.095Z,59
2022-10-13T03:55:12.866Z,59
2022-10-13T03:56:52.623Z,59
2022-10-13T03:58:32.379Z,59
2022-10-13T04:00:12.142Z,59
2022-10-13T04:03:31.679Z,59
2022-10-13T04:05:11.442Z,59
2022-10-13T04:06:51.201Z,58
2022-10-13T04:08:30.974Z,58
2022-10-13T04:10:10.739Z,59
2022-10-13T04:13:30.258Z,59
2022-10-13T04:15:10.025Z,59
2022-10-13T04:16:49.798Z,58
2022-10-13T04:18:29.552Z,58
2022-10-13T04:20:09.382Z,58
2022-10-13T04:23:28.832Z,58
2022-10-13T04:25:08.605Z,58
2022-10-13T04:26:48.367Z,58
2022-10-13T04:28:28.125Z,57
2022-10-13T04:30:07.889Z,57
2022-10-13T04:31:47.653Z,57
2022-10-13T04:33:27.428Z,58
2022-10-13T04:35:07.182Z,58
2022-10-13T04:36:46.961Z,57
2022-10-13T04:38:26.711Z,58
2022-10-13T04:41:46.251Z,57
2022-10-13T04:43:26.024Z,57
2022-10-13T04:46:45.528Z,57
2022-10-13T04:48:25.312Z,56
2022-10-13T04:50:05.077Z,57
2022-10-13T04:53:24.592Z,56
2022-10-13T04:55:04.346Z,56
2022-10-13T04:56:44.114Z,56
2022-10-13T04:58:23.899Z,56
2022-10-13T05:00:03.666Z,56
2022-10-13T05:01:43.415Z,56
2022-10-13T05:03:23.180Z,56
2022-10-13T05:05:02.944Z,56
2022-10-13T05:06:42.696Z,56
2022-10-13T05:08:22.561Z,56
2022-10-13T05:10:02.235Z,55
2022-10-13T05:11:42.002Z,56
2022-10-13T05:15:01.520Z,56
2022-10-13T05:16:41.298Z,55
2022-10-13T05:18:21.054Z,56
2022-10-13T05:20:00.825Z,56
2022-10-13T05:21:40.583Z,56
2022-10-13T05:23:20.346Z,56
2022-10-13T05:25:00.107Z,56
2022-10-13T05:26:39.870Z,56
2022-10-13T05:28:19.626Z,56
2022-10-13T05:29:59.386Z,56
2022-10-13T05:31:39.170Z,56
2022-10-13T05:33:18.950Z,56
2022-10-13T05:34:58.704Z,56
2022-10-13T05:36:38.460Z,56
2022-10-13T05:38:18.221Z,57
2022-10-13T05:39:58.011Z,56
2022-10-13T05:41:37.754Z,56
2022-10-13T05:43:17.518Z,56
2022-10-13T05:44:57.283Z,57
2022-10-13T05:46:37.034Z,58
2022-10-13T05:48:16.804Z,58
2022-10-13T05:49:56.567Z,59
2022-10-13T05:51:36.333Z,59
2022-10-13T05:53:16.090Z,60
2022-10-13T05:56:35.610Z,62
2022-10-13T05:58:15.414Z,63
2022-10-13T05:59:55.137Z,64
2022-10-13T06:01:34.926Z,65
2022-10-13T06:03:14.673Z,66
2022-10-13T06:04:54.471Z,66
2022-10-13T06:06:34.191Z,68
2022-10-13T06:08:13.975Z,69
2022-10-13T06:09:53.719Z,70
2022-10-13T06:11:33.491Z,70
2022-10-13T06:13:13.251Z,72
2022-10-13T06:14:53.015Z,73
2022-10-13T06:16:32.791Z,74
2022-10-13T06:18:12.544Z,74
2022-10-13T06:19:52.317Z,75
2022-10-13T06:23:11.836Z,78
2022-10-13T06:24:51.604Z,79
2022-10-13T06:26:31.370Z,81
2022-10-13T06:28:11.127Z,83
2022-10-13T06:29:50.899Z,84
2022-10-13T06:31:30.653Z,86
2022-10-13T06:33:10.430Z,88
2022-10-13T06:34:50.190Z,90
2022-10-13T06:36:29.954Z,91
2022-10-13T06:38:09.712Z,92
2022-10-13T06:39:49.535Z,97
2022-10-13T06:43:09.024Z,94
2022-10-13T06:46:28.534Z,92
2022-10-13T06:48:08.307Z,91
2022-10-13T06:49:48.049Z,91
2022-10-13T06:53:07.589Z,88
2022-10-13T06:54:47.344Z,86
2022-10-13T06:56:27.112Z,86
2022-10-13T06:58:06.866Z,86
2022-10-13T06:59:46.650Z,86
2022-10-13T07:01:26.406Z,86
2022-10-13T07:03:06.164Z,88
2022-10-13T07:04:45.928Z,91
2022-10-13T07:06:25.811Z,95
2022-10-13T07:08:05.465Z,97
2022-10-13T07:09:45.236Z,100
2022-10-13T07:13:04.829Z,100
2022-10-13T07:16:24.371Z,100
2022-10-13T07:18:04.083Z,99
2022-10-13T07:19:43.845Z,97
2022-10-13T07:23:03.341Z,96
2022-10-13T07:24:43.159Z,95
2022-10-13T07:26:22.868Z,96
2022-10-13T07:28:02.683Z,98
2022-10-13T07:29:42.422Z,100
2022-10-13T07:31:22.156Z,100
2022-10-13T07:33:01.978Z,100
2022-10-13T07:36:21.442Z,100
2022-10-13T07:38:01.308Z,100
2022-10-13T07:39:40.984Z,100
2022-10-13T07:41:20.747Z,100
2022-10-13T07:44:40.273Z,100
2022-10-13T07:46:20.032Z,100
2022-10-13T07:47:59.948Z,100
2022-10-13T07:49:39.590Z,100
2022-10-13T07:51:19.315Z,100
2022-10-13T07:52:59.134Z,100
2022-10-13T07:54:38.889Z,100
2022-10-13T07:56:18.623Z,100
2022-10-13T07:57:58.382Z,100
2022-10-13T07:59:38.155Z,100
2022-10-13T08:01:17.951Z,100
2022-10-13T08:02:57.734Z,100
2022-10-13T08:04:37.430Z,100
2022-10-13T08:06:17.206Z,100
2022-10-13T08:07:56.982Z,100
2022-10-13T08:09:36.733Z,100
2022-10-13T08:11:16.485Z,100
2022-10-13T08:12:56.244Z,100
2022-10-13T08:14:36.020Z,100
2022-10-13T08:16:15.796Z,100
2022-10-13T08:17:55.555Z,100
2022-10-13T08:19:35.341Z,100
2022-10-13T08:21:15.069Z,100
2022-10-13T08:22:54.831Z,100
2022-10-13T08:24:34.591Z,100
2022-10-13T08:26:14.360Z,100
2022-10-13T08:29:33.880Z,100
2022-10-13T08:32:53.406Z,100
2022-10-13T08:34:33.188Z,100
2022-10-13T08:36:12.945Z,100
2022-10-13T08:37:52.707Z,100
2022-10-13T08:39:32.500Z,100
2022-10-13T08:42:51.998Z,100
2022-10-13T08:44:31.759Z,100
2022-10-13T08:46:11.544Z,100
2022-10-13T08:47:51.300Z,100
2022-10-13T08:49:31.089Z,100
2022-10-13T08:52:50.596Z,100
2022-10-13T08:56:10.112Z,100
2022-10-13T08:57:49.887Z,100
2022-10-13T08:59:29.652Z,100
2022-10-13T09:02:49.161Z,100
2022-10-13T09:06:08.691Z,100
2022-10-13T09:07:48.483Z,100
2022-10-13T09:09:28.246Z,100
2022-10-13T09:12:47.886Z,100
2022-10-13T09:14:27.518Z,100
2022-10-13T09:16:07.262Z,100
2022-10-13T09:17:47.033Z,100
2022-10-13T09:19:26.811Z,100
2022-10-13T09:26:05.864Z,100
2022-10-13T09:27:45.657Z,100
2022-10-13T09:29:25.383Z,100
2022-10-13T09:32:45.031Z,100
2022-10-13T09:34:24.718Z,96
2022-10-13T09:36:04.455Z,100
2022-10-13T09:37:44.222Z,100
2022-10-13T09:39:23.983Z,100
2022-10-13T09:42:43.500Z,100
2022-10-13T09:44:23.255Z,100
2022-10-13T09:46:03.022Z,100
2022-10-13T09:47:42.786Z,100
2022-10-13T09:49:22.568Z,100
2022-10-13T09:52:42.080Z,100
2022-10-13T09:56:01.612Z,100
2022-10-13T09:57:41.363Z,100
2022-10-13T09:59:21.142Z,100
2022-10-13T10:02:40.667Z,100
2022-10-13T10:04:20.483Z,100
2022-10-13T10:07:40.025Z,100
2022-10-13T10:09:19.734Z,100
2022-10-13T10:12:39.240Z,100
2022-10-13T10:14:19.018Z,100
2022-10-13T10:15:58.769Z,100
2022-10-13T10:17:38.557Z,100
2022-10-13T10:19:18.306Z,100
2022-10-13T10:20:58.068Z,100
2022-10-13T10:22:37.829Z,100
2022-10-13T10:25:57.373Z,100
2022-10-13T10:29:16.905Z,100
2022-10-13T10:30:56.656Z,100
2022-10-13T10:32:36.457Z,100
2022-10-13T10:39:15.484Z,100
2022-10-13T10:42:35.005Z,100
2022-10-13T10:44:14.767Z,100
2022-10-13T10:45:54.524Z,100
2022-10-13T10:47:34.293Z,99
2022-10-13T10:49:14.064Z,99
2022-10-13T10:52:33.585Z,99
2022-10-13T10:54:13.345Z,100
2022-10-13T10:55:53.102Z,100
2022-10-13T10:57:32.885Z,100
2022-10-13T10:59:12.645Z,100
2022-10-13T11:00:52.394Z,99
2022-10-13T11:02:32.166Z,99
2022-10-13T11:04:11.922Z,99
2022-10-13T11:05:51.690Z,99
2022-10-13T11:07:31.450Z,100
2022-10-13T11:09:11.229Z,99
2022-10-13T11:12:30.745Z,100
2022-10-13T11:14:10.520Z,100
2022-10-13T11:17:30.038Z,100
2022-10-13T11:19:09.795Z,100
2022-10-13T11:22:29.322Z,99
2022-10-13T11:25:48.889Z,100
2022-10-13T11:27:28.655Z,100
2022-10-13T11:29:08.394Z,100
2022-10-13T11:30:48.155Z,100
2022-10-13T11:32:27.922Z,98
2022-10-13T11:35:47.454Z,99
2022-10-13T11:37:27.215Z,100
2022-10-13T11:39:06.973Z,100
2022-10-13T11:42:26.500Z,100
2022-10-13T11:45:46.029Z,99
2022-10-13T11:47:25.788Z,100
2022-10-13T11:49:05.587Z,100
2022-10-13T11:50:45.339Z,100
2022-10-13T11:52:25.089Z,98
2022-10-13T11:54:04.862Z,98
2022-10-13T11:55:44.611Z,98
2022-10-13T11:57:24.374Z,100
2022-10-13T11:59:04.142Z,100
2022-10-13T12:00:43.893Z,100
2022-10-13T12:02:23.676Z,100
2022-10-13T12:04:03.450Z,98
2022-10-13T12:05:43.214Z,99
2022-10-13T12:09:02.817Z,99
2022-10-13T12:10:42.507Z,99
2022-10-13T12:12:22.242Z,98
2022-10-13T12:14:02.011Z,98
2022-10-13T12:15:41.779Z,99
2022-10-13T12:17:21.553Z,99
2022-10-13T12:19:01.304Z,100
2022-10-13T12:20:41.065Z,100
2022-10-13T12:22:20.861Z,100
2022-10-13T12:24:00.594Z,100
2022-10-13T12:25:40.370Z,100
2022-10-13T12:27:20.128Z,100
2022-10-13T12:28:59.925Z,100
2022-10-13T12:30:39.650Z,99
2022-10-13T12:32:19.415Z,98
2022-10-13T12:35:38.949Z,99
2022-10-13T12:37:18.704Z,98
2022-10-13T12:38:58.471Z,100
2022-10-13T12:40:38.231Z,100
2022-10-13T12:42:18.008Z,100
2022-10-13T12:43:57.774Z,100
2022-10-13T12:45:37.600Z,99
2022-10-13T12:47:17.301Z,98
2022-10-13T12:48:57.083Z,99
2022-10-13T12:50:36.864Z,99
2022-10-13T12:52:16.582Z,100
2022-10-13T12:53:56.359Z,100
2022-10-13T12:55:36.111Z,100
2022-10-13T12:57:15.889Z,100
2022-10-13T12:58:55.661Z,100
2022-10-13T13:00:35.466Z,100
2022-10-13T13:02:15.179Z,100
2022-10-13T13:03:54.943Z,100
2022-10-13T13:05:34.709Z,99
2022-10-13T13:07:14.472Z,99
2022-10-13T13:08:54.226Z,99
2022-10-13T13:10:34.045Z,99
2022-10-13T13:12:13.858Z,100
2022-10-13T13:13:53.517Z,100
2022-10-13T13:15:33.292Z,100
2022-10-13T13:20:32.581Z,99
2022-10-13T13:25:31.869Z,100
2022-10-13T13:27:11.654Z,99
2022-10-13T13:30:31.191Z,99
2022-10-13T13:32:10.920Z,98
2022-10-13T13:33:50.695Z,100
2022-10-13T13:35:30.457Z,99
2022-10-13T13:37:10.234Z,98
2022-10-13T13:38:49.987Z,100
2022-10-13T13:40:29.787Z,100
2022-10-13T13:42:09.506Z,98
2022-10-13T13:43:49.269Z,100
2022-10-13T13:45:29.073Z,99
2022-10-13T13:47:08.954Z,99
2022-10-13T13:52:08.084Z,100
2022-10-13T13:53:47.851Z,97
2022-10-13T13:55:27.613Z,98
2022-10-13T13:57:07.458Z,100
2022-10-13T13:58:47.144Z,98
2022-10-13T14:00:26.916Z,98
2022-10-13T14:02:06.676Z,97
2022-10-13T14:05:26.203Z,98
2022-10-13T14:07:05.970Z,100
2022-10-13T14:08:45.795Z,98
2022-10-13T14:10:25.504Z,100
2022-10-13T14:12:05.251Z,100
2022-10-13T14:13:45.023Z,97
2022-10-13T14:15:24.790Z,98
2022-10-13T14:17:04.557Z,99
2022-10-13T14:18:44.322Z,97
2022-10-13T14:23:43.605Z,98
2022-10-13T14:25:23.366Z,100
2022-10-13T14:27:03.177Z,100
2022-10-13T14:28:42.897Z,98
2022-10-13T14:32:02.425Z,98
2022-10-13T14:35:21.993Z,98
2022-10-13T14:37:01.716Z,99
2022-10-13T14:38:41.515Z,100
2022-10-13T14:40:21.254Z,100
2022-10-13T14:42:01.039Z,100
2022-10-13T14:45:20.540Z,98
2022-10-13T14:47:00.306Z,100
2022-10-13T14:48:40.087Z,98
2022-10-13T14:50:19.834Z,100
2022-10-13T14:51:59.598Z,99
2022-10-13T14:53:39.357Z,100
2022-10-13T14:55:19.182Z,100
2022-10-13T14:56:58.895Z,100
2022-10-13T14:58:38.657Z,98
2022-10-13T15:00:18.408Z,98
2022-10-13T15:01:58.186Z,100
2022-10-13T15:05:17.738Z,100
2022-10-13T15:06:57.461Z,100
2022-10-13T15:08:37.234Z,98
2022-10-13T15:10:16.988Z,99
2022-10-13T15:11:56.794Z,100
2022-10-13T15:15:16.300Z,100
2022-10-13T15:16:56.056Z,100
2022-10-13T15:18:35.817Z,100
2022-10-13T15:21:55.375Z,100
2022-10-13T15:25:14.886Z,100
2022-10-13T15:26:54.631Z,98
2022-10-13T15:30:14.226Z,100
2022-10-13T15:31:53.924Z,100
2022-10-13T15:33:33.690Z,100
2022-10-13T15:35:13.450Z,100
2022-10-13T15:36:53.224Z,100
2022-10-13T15:38:32.982Z,99
2022-10-13T15:40:12.748Z,100
2022-10-13T15:41:52.520Z,98
2022-10-13T15:43:32.277Z,100
2022-10-13T15:45:12.049Z,100
2022-10-13T15:48:31.709Z,86
2022-10-13T15:50:11.496Z,84
2022-10-13T15:51:51.237Z,81
2022-10-13T15:53:30.889Z,80
2022-10-13T15:55:10.691Z,79
2022-10-13T15:56:50.390Z,78
2022-10-13T15:58:30.156Z,77
2022-10-13T16:01:49.699Z,75
2022-10-13T16:03:29.435Z,75
2022-10-13T16:05:09.294Z,73
2022-10-13T16:06:48.986Z,73
2022-10-13T16:08:28.762Z,73
2022-10-13T16:10:08.557Z,73
2022-10-13T16:11:48.271Z,73
2022-10-13T16:13:28.046Z,72
2022-10-13T16:15:07.803Z,72
2022-10-13T16:16:47.557Z,72
2022-10-13T16:20:07.082Z,71
2022-10-13T16:21:46.861Z,71
2022-10-13T16:25:06.377Z,71
2022-10-13T16:26:46.132Z,71
2022-10-13T16:31:45.458Z,70
2022-10-13T16:33:25.187Z,70
2022-10-13T16:35:05.020Z,70
2022-10-13T16:36:44.715Z,71
2022-10-13T16:38:24.506Z,70
2022-10-13T16:41:44.029Z,70
2022-10-13T16:43:23.815Z,70
2022-10-13T16:45:03.557Z,70
2022-10-13T16:46:43.317Z,69
2022-10-13T16:48:23.073Z,70
2022-10-13T16:50:02.903Z,70
2022-10-13T16:53:22.375Z,69
2022-10-13T16:55:02.128Z,70
2022-10-13T16:56:41.880Z,70
2022-10-13T16:58:21.727Z,69
2022-10-13T17:01:41.188Z,70
2022-10-13T17:03:20.954Z,70
2022-10-13T17:05:00.752Z,70
2022-10-13T17:06:40.471Z,69
2022-10-13T17:08:20.253Z,69
2022-10-13T17:09:59.999Z,70
2022-10-13T17:11:39.757Z,69
2022-10-13T17:13:19.527Z,69
2022-10-13T17:14:59.320Z,69
2022-10-13T17:16:39.072Z,69
2022-10-13T17:18:18.814Z,69
2022-10-13T17:19:58.576Z,69
2022-10-13T17:21:38.346Z,69
2022-10-13T17:23:18.116Z,69
2022-10-13T17:24:57.905Z,69
2022-10-13T17:26:37.631Z,69
2022-10-13T17:28:17.412Z,69
2022-10-13T17:29:57.168Z,69
2022-10-13T17:31:36.934Z,68
2022-10-13T17:33:16.712Z,69
2022-10-13T17:34:56.484Z,69
2022-10-13T17:36:36.220Z,69
2022-10-13T17:38:15.988Z,68
2022-10-13T17:43:15.267Z,69
2022-10-13T17:44:55.036Z,68
2022-10-13T17:46:34.809Z,69
2022-10-13T17:48:14.651Z,68
2022-10-13T17:51:34.102Z,68
2022-10-13T17:53:13.861Z,68
2022-10-13T17:54:53.640Z,68
2022-10-13T17:56:33.474Z,68
2022-10-13T17:58:13.145Z,68
2022-10-13T18:01:32.679Z,68
2022-10-13T18:03:12.452Z,68
2022-10-13T18:04:52.217Z,68
2022-10-13T18:06:31.976Z,68
2022-10-13T18:08:11.751Z,67
2022-10-13T18:09:51.495Z,68
2022-10-13T18:11:31.275Z,68
2022-10-13T18:13:11.042Z,68
2022-10-13T18:14:50.875Z,68
2022-10-13T18:16:30.591Z,68
2022-10-13T18:18:10.338Z,67
2022-10-13T18:23:09.605Z,67
2022-10-13T18:24:49.385Z,68
2022-10-13T18:28:08.908Z,67
2022-10-13T18:31:28.437Z,67
2022-10-13T18:33:08.226Z,68
2022-10-13T18:34:47.972Z,68
2022-10-13T18:36:27.717Z,68
2022-10-13T18:38:07.586Z,68
2022-10-13T18:41:27.011Z,68
2022-10-13T18:44:46.571Z,68
2022-10-13T18:46:26.305Z,67
2022-10-13T18:49:45.846Z,67
2022-10-13T18:51:25.655Z,68
2022-10-13T18:53:05.365Z,67
2022-10-13T18:56:24.897Z,67
2022-10-13T18:58:04.725Z,67
2022-10-13T18:59:44.505Z,67
2022-10-13T19:01:24.275Z,67
2022-10-13T19:03:04.020Z,67
2022-10-13T19:04:43.698Z,67
2022-10-13T19:06:23.483Z,67
2022-10-13T19:08:03.343Z,67
2022-10-13T19:09:43.096Z,68
2022-10-13T19:11:22.779Z,67
2022-10-13T19:13:02.542Z,67
2022-10-13T19:14:42.317Z,67
2022-10-13T19:18:01.837Z,67
2022-10-13T19:19:41.576Z,68
2022-10-13T19:21:21.353Z,67
2022-10-13T19:23:01.160Z,67
2022-10-13T19:24:40.869Z,67
2022-10-13T19:26:20.646Z,68
2022-10-13T19:28:00.410Z,67
2022-10-13T19:31:19.935Z,67
2022-10-13T19:32:59.706Z,67
2022-10-13T19:34:39.520Z,67
2022-10-13T19:41:18.519Z,67
2022-10-13T19:42:58.299Z,66
2022-10-13T19:44:38.064Z,66
2022-10-13T19:46:17.806Z,67
2022-10-13T19:47:57.559Z,67
2022-10-13T19:49:37.402Z,67
2022-10-13T19:51:17.169Z,67
2022-10-13T19:52:56.858Z,66
2022-10-13T19:54:36.635Z,66
2022-10-13T19:56:16.413Z,66
2022-10-13T19:57:56.147Z,66
2022-10-13T19:59:35.905Z,67
2022-10-13T20:01:15.702Z,66
2022-10-13T20:02:55.447Z,67
2022-10-13T20:04:35.210Z,67
2022-10-13T20:06:14.974Z,67
2022-10-13T20:07:54.790Z,67
2022-10-13T20:14:33.785Z,67
2022-10-13T20:16:13.553Z,66
2022-10-13T20:17:53.368Z,66
2022-10-13T20:21:12.859Z,67
2022-10-13T20:22:52.611Z,66
2022-10-13T20:24:32.405Z,66
2022-10-13T20:26:12.136Z,66
2022-10-13T20:27:51.904Z,67
2022-10-13T20:29:31.664Z,66
2022-10-13T20:31:11.422Z,66
2022-10-13T20:32:51.199Z,66
2022-10-13T20:34:30.966Z,66
2022-10-13T20:36:10.724Z,66
2022-10-13T20:37:50.522Z,66
2022-10-13T20:39:30.256Z,66
2022-10-13T20:41:10.015Z,66
2022-10-13T20:46:09.290Z,66
2022-10-13T20:47:49.078Z,66
2022-10-13T20:51:08.586Z,66
2022-10-13T20:52:48.359Z,66
2022-10-13T20:54:28.127Z,66
2022-10-13T20:56:07.885Z,66
2022-10-13T20:57:47.656Z,65
2022-10-13T20:59:27.405Z,66
2022-10-13T21:01:07.181Z,66
2022-10-13T21:02:46.946Z,65
2022-10-13T21:04:26.715Z,66
2022-10-13T21:06:06.490Z,65
2022-10-13T21:07:46.325Z,66
2022-10-13T21:09:26.006Z,66
2022-10-13T21:11:05.771Z,65
2022-10-13T21:12:45.522Z,65
2022-10-13T21:14:25.299Z,66
2022-10-13T21:16:05.071Z,65
2022-10-13T21:21:04.336Z,65
2022-10-13T21:22:44.131Z,66
2022-10-13T21:24:23.873Z,65
2022-10-13T21:26:03.695Z,66
2022-10-13T21:27:43.406Z,66
2022-10-13T21:29:23.171Z,65
2022-10-13T21:31:02.928Z,66
2022-10-13T21:32:42.732Z,65
2022-10-13T21:34:22.458Z,65
2022-10-13T21:36:02.232Z,66
2022-10-13T21:37:42.024Z,65
2022-10-13T21:39:21.780Z,66
2022-10-13T21:41:01.613Z,66
2022-10-13T21:44:21.026Z,66
2022-10-13T21:47:40.560Z,66
2022-10-13T21:51:00.114Z,66
2022-10-13T21:52:39.860Z,65
2022-10-13T21:54:19.637Z,66
2022-10-13T21:55:59.411Z,65
2022-10-13T21:57:39.234Z,65
2022-10-13T22:00:58.684Z,65
2022-10-13T22:02:38.440Z,65
2022-10-13T22:04:18.244Z,65
2022-10-13T22:05:57.975Z,65
2022-10-13T22:07:37.760Z,66
2022-10-13T22:10:57.256Z,65
2022-10-13T22:14:16.803Z,65
2022-10-13T22:15:56.557Z,66
2022-10-13T22:17:36.322Z,65
2022-10-13T22:19:16.122Z,66
2022-10-13T22:20:55.847Z,65
2022-10-13T22:22:35.654Z,66
2022-10-13T22:25:55.133Z,66
2022-10-13T22:27:34.911Z,65
2022-10-13T22:29:14.659Z,65
2022-10-13T22:30:54.416Z,64
2022-10-13T22:34:13.948Z,65
2022-10-13T22:35:53.728Z,65
2022-10-13T22:37:33.474Z,64
2022-10-13T22:39:13.244Z,64
2022-10-13T22:40:53.005Z,65
2022-10-13T22:42:32.809Z,64
2022-10-13T22:44:12.544Z,64
2022-10-13T22:45:52.313Z,65
2022-10-13T22:47:32.055Z,64
2022-10-13T22:50:51.601Z,65
2022-10-13T22:52:31.451Z,65
2022-10-13T22:54:11.137Z,64
2022-10-13T22:55:50.871Z,64
2022-10-13T22:57:30.643Z,64
2022-10-13T22:59:10.406Z,64
2022-10-13T23:00:50.168Z,64
2022-10-13T23:02:29.933Z,64
2022-10-13T23:04:09.743Z,65
2022-10-13T23:05:49.466Z,64
2022-10-13T23:07:29.237Z,64
2022-10-13T23:10:48.767Z,64
2022-10-13T23:12:28.534Z,64
2022-10-13T23:14:08.283Z,64
2022-10-13T23:15:48.040Z,65
2022-10-13T23:17:27.926Z,64
2022-10-13T23:19:07.621Z,64
2022-10-13T23:20:47.346Z,64
2022-10-13T23:22:27.106Z,65
2022-10-13T23:24:06.891Z,64
2022-10-13T23:25:46.652Z,64
2022-10-13T23:27:26.409Z,64
2022-10-13T23:29:06.207Z,64
2022-10-13T23:30:45.917Z,64
2022-10-13T23:32:25.686Z,64
2022-10-13T23:34:05.467Z,64
2022-10-13T23:35:45.275Z,64
2022-10-13T23:37:24.967Z,65
2022-10-13T23:39:04.764Z,64
2022-10-13T23:40:44.498Z,64
2022-10-13T23:42:24.295Z,64
2022-10-13T23:44:04.020Z,64
2022-10-13T23:45:43.792Z,65
2022-10-13T23:47:23.559Z,64
2022-10-13T23:49:03.336Z,64
2022-10-13T23:50:43.081Z,64
2022-10-13T23:52:22.858Z,64
2022-10-13T23:54:02.622Z,64
2022-10-13T23:55:42.386Z,64
2022-10-13T23:57:22.172Z,64
2022-10-13T23:59:01.925Z,64
